Time;durP1;ratioP1;P1;durP2;ratioP2;P2;SDS_P1;SDS_P2;PMS_P1;PMS_P2;Temp;Humidity;BMP_temperature;BMP_pressure;BME280_temperature;BME280_humidity;BME280_pressure;Samples;Min_cycle;Max_cycle;Signal;HPM_P1;HPM_P2
2022/05/11 00:00:32;;;;;;;13.13;6.42;;;;;;;4.07;100.00;99853.94;1724647;82;21646;-58
2022/05/11 00:02:59;;;;;;;13.00;6.45;;;;;;;4.01;100.00;99848.91;1723186;82;21496;-58
2022/05/11 00:05:25;;;;;;;13.13;6.15;;;;;;;3.99;100.00;99846.16;1743451;82;21402;-58
2022/05/11 00:07:52;;;;;;;13.58;6.62;;;;;;;4.01;100.00;99849.44;1727432;82;21071;-59
2022/05/11 00:10:19;;;;;;;12.73;6.58;;;;;;;4.00;100.00;99845.91;1741299;82;21043;-59
2022/05/11 00:12:46;;;;;;;14.50;6.30;;;;;;;4.00;100.00;99845.91;1741476;82;21003;-58
2022/05/11 00:15:17;;;;;;;12.73;6.53;;;;;;;3.95;100.00;99844.44;1733851;82;21086;-59
2022/05/11 00:17:43;;;;;;;15.45;7.03;;;;;;;3.92;100.00;99848.11;1738447;81;21050;-59
2022/05/11 00:20:11;;;;;;;14.10;7.10;;;;;;;3.89;100.00;99848.05;1736148;82;21462;-59
2022/05/11 00:22:37;;;;;;;13.70;7.10;;;;;;;3.86;100.00;99845.78;1743194;82;20995;-58
2022/05/11 00:25:06;;;;;;;15.72;8.03;;;;;;;3.77;100.00;99828.81;1727248;82;21107;-59
2022/05/11 00:27:33;;;;;;;13.53;7.33;;;;;;;3.91;100.00;99842.41;1728522;82;21023;-58
2022/05/11 00:29:59;;;;;;;14.65;7.53;;;;;;;3.91;100.00;99838.38;1728444;82;21126;-58
2022/05/11 00:32:26;;;;;;;14.98;7.30;;;;;;;3.89;100.00;99842.66;1731851;82;21134;-60
2022/05/11 00:34:52;;;;;;;14.28;7.60;;;;;;;3.83;100.00;99840.02;1750381;82;21558;-59
2022/05/11 00:37:21;;;;;;;16.15;7.40;;;;;;;3.77;100.00;99847.66;1729183;82;21115;-58
2022/05/11 00:39:48;;;;;;;15.93;7.33;;;;;;;3.73;100.00;99842.42;1739527;82;21060;-58
2022/05/11 00:42:15;;;;;;;14.43;7.75;;;;;;;3.67;100.00;99841.98;1741552;81;21554;-58
2022/05/11 00:44:42;;;;;;;13.72;7.65;;;;;;;3.65;100.00;99839.50;1696615;84;21157;-58
2022/05/11 00:47:27;;;;;;;13.68;7.20;;;;;;;3.68;100.00;99836.39;1741915;82;21023;-58
2022/05/11 00:49:59;;;;;;;16.85;7.20;;;;;;;3.72;100.00;99841.59;1723973;82;21534;-58
2022/05/11 00:52:34;;;;;;;15.63;7.78;;;;;;;3.71;100.00;99845.88;1735685;82;21067;-58
2022/05/11 00:55:06;;;;;;;15.68;7.22;;;;;;;3.66;100.00;99844.36;1717251;82;21661;-59
2022/05/11 00:57:54;;;;;;;13.65;7.28;;;;;;;3.63;100.00;99842.13;1724147;82;21522;-59
2022/05/11 01:00:22;;;;;;;11.35;6.87;;;;;;;3.58;100.00;99848.72;1718309;82;21063;-58
2022/05/11 01:02:54;;;;;;;15.60;7.10;;;;;;;3.59;100.00;99844.96;1738292;82;21015;-58
2022/05/11 01:05:22;;;;;;;18.98;7.20;;;;;;;3.61;100.00;99841.54;1721715;82;21683;-59
2022/05/11 01:07:51;;;;;;;15.65;6.90;;;;;;;3.64;100.00;99835.70;1718269;82;21087;-57
2022/05/11 01:10:18;;;;;;;11.93;7.08;;;;;;;3.63;100.00;99844.30;1719761;82;21573;-59
2022/05/11 01:12:47;;;;;;;18.20;7.92;;;;;;;3.55;100.00;99842.41;1739264;82;21087;-58
2022/05/11 01:15:14;;;;;;;13.50;7.03;;;;;;;3.55;100.00;99842.41;1738644;82;21015;-59
2022/05/11 01:17:41;;;;;;;20.52;7.28;;;;;;;3.50;100.00;99844.45;1727518;82;20983;-58
2022/05/11 01:20:12;;;;;;;15.13;6.90;;;;;;;3.44;100.00;99839.42;1728001;82;21023;-58
2022/05/11 01:22:55;;;;;;;15.03;7.08;;;;;;;3.45;100.00;99839.73;1717584;82;21605;-58
2022/05/11 01:25:21;;;;;;;12.43;5.87;;;;;;;3.49;100.00;99838.24;1732723;82;21074;-58
2022/05/11 01:27:48;;;;;;;14.60;6.53;;;;;;;3.53;100.00;99835.09;1739250;82;21404;-58
2022/05/11 01:30:22;;;;;;;12.82;6.72;;;;;;;3.53;100.00;99833.23;1746849;82;21523;-58
2022/05/11 01:32:52;;;;;;;10.38;5.70;;;;;;;3.48;100.00;99826.34;1745489;82;21027;-58
2022/05/11 01:36:04;;;;;;;12.90;6.17;;;;;;;3.44;100.00;99827.31;1723577;82;21515;-58
2022/05/11 01:38:52;;;;;;;14.07;6.55;;;;;;;3.38;100.00;99822.83;1723331;82;21507;-59
2022/05/11 01:41:25;;;;;;;14.63;6.10;;;;;;;3.30;100.00;99823.11;1722010;82;21067;-58
2022/05/11 01:43:52;;;;;;;14.23;6.53;;;;;;;3.30;100.00;99821.77;1726961;82;21031;-58
2022/05/11 01:46:19;;;;;;;14.70;6.15;;;;;;;3.33;100.00;99826.70;1728360;82;21075;-58
2022/05/11 01:48:46;;;;;;;9.85;6.05;;;;;;;3.36;100.00;99826.28;1734162;82;21537;-58
2022/05/11 01:51:14;;;;;;;12.82;6.50;;;;;;;3.35;100.00;99824.63;1745079;81;21011;-59
2022/05/11 01:53:41;;;;;;;10.15;6.15;;;;;;;3.33;100.00;99824.00;1720135;82;21046;-58
2022/05/11 01:56:09;;;;;;;15.30;7.12;;;;;;;3.28;100.00;99821.18;1727195;82;20984;-59
2022/05/11 01:58:36;;;;;;;10.82;6.58;;;;;;;3.25;100.00;99817.59;1687045;84;21130;-58
2022/05/11 02:01:03;;;;;;;13.98;6.80;;;;;;;3.22;100.00;99822.08;1683853;84;21026;-58
2022/05/11 02:03:29;;;;;;;;;;;;;;;3.23;100.00;99822.35;1742430;82;21386;-58
2022/05/11 02:08:43;;;;;;;16.90;6.95;;;;;;;3.31;100.00;99821.25;1730736;82;21557;-58
2022/05/11 02:11:11;;;;;;;13.10;6.67;;;;;;;3.33;100.00;99817.83;1746578;82;21036;-59
2022/05/11 02:13:40;;;;;;;14.70;6.70;;;;;;;3.29;100.00;99813.41;1726270;82;21059;-58
2022/05/11 02:16:06;;;;;;;13.78;6.62;;;;;;;3.27;100.00;99822.22;1727629;82;21015;-59
2022/05/11 02:18:33;;;;;;;;;;;;;;;3.21;100.00;99812.35;1733404;82;21111;-58
2022/05/11 02:20:59;;;;;;;13.03;6.60;;;;;;;3.15;100.00;99813.77;1734559;82;20129;-57
2022/05/11 02:23:25;;;;;;;11.03;6.40;;;;;;;3.04;100.00;99818.00;1720685;82;21472;-58
2022/05/11 02:25:52;;;;;;;15.08;6.78;;;;;;;3.06;100.00;99814.56;1721676;82;21033;-58
2022/05/11 02:28:22;;;;;;;13.08;6.87;;;;;;;3.10;100.00;99817.11;1723220;82;21498;-59
2022/05/11 02:30:53;;;;;;;15.90;6.70;;;;;;;3.13;100.00;99817.18;1737860;82;21507;-58
2022/05/11 02:33:20;;;;;;;13.98;7.17;;;;;;;3.12;100.00;99814.22;1737241;82;21035;-58
2022/05/11 02:35:46;;;;;;;12.47;6.95;;;;;;;3.08;100.00;99820.56;1701327;84;21128;-58
2022/05/11 02:38:23;;;;;;;;;;;;;;;3.08;100.00;99823.25;1725602;82;21106;-58
2022/05/11 02:40:51;;;;;;;13.85;6.28;;;;;;;3.10;100.00;99821.66;1723786;82;20093;-58
2022/05/11 02:43:18;;;;;;;11.35;6.80;;;;;;;3.02;100.00;99824.11;1733680;82;21133;-58
2022/05/11 02:45:45;;;;;;;14.18;6.78;;;;;;;3.08;100.00;99819.21;1726074;82;21035;-58
2022/05/11 02:48:14;;;;;;;;;;;;;;;3.17;100.00;99823.25;1730382;82;21074;-58
2022/05/11 02:50:46;;;;;;;13.80;6.60;;;;;;;3.25;100.00;99818.94;1723713;82;20140;-58
2022/05/11 02:53:14;;;;;;;12.45;6.53;;;;;;;3.27;100.00;99814.66;1737393;82;21470;-58
2022/05/11 02:55:46;;;;;;;12.65;6.70;;;;;;;3.31;100.00;99818.55;1731641;82;21075;-58
2022/05/11 02:58:14;;;;;;;12.88;7.05;;;;;;;3.35;100.00;99818.41;1726379;82;21117;-58
2022/05/11 03:00:44;;;;;;;16.52;7.47;;;;;;;3.39;100.00;99817.76;1722950;82;21090;-58
2022/05/11 03:03:11;;;;;;;15.90;7.33;;;;;;;3.40;100.00;99811.86;1746406;82;20976;-58
2022/05/11 03:05:39;;;;;;;12.60;6.95;;;;;;;3.44;100.00;99819.75;1744402;82;21114;-59
2022/05/11 03:08:07;;;;;;;14.63;6.47;;;;;;;3.53;100.00;99821.64;1741767;82;21050;-58
2022/05/11 03:10:34;;;;;;;12.45;6.40;;;;;;;3.65;100.00;99820.66;1733566;82;21088;-58
2022/05/11 03:13:02;;;;;;;12.65;6.58;;;;;;;3.77;100.00;99818.04;1725949;81;21117;-58
2022/05/11 03:15:30;;;;;;;15.35;6.83;;;;;;;3.85;100.00;99815.05;1743937;82;21137;-58
2022/05/11 03:17:57;;;;;;;15.30;6.83;;;;;;;3.91;100.00;99813.62;1725294;82;21062;-58
2022/05/11 03:20:25;;;;;;;;;;;;;;;3.96;100.00;99818.33;1728525;82;21071;-58
2022/05/11 03:22:53;;;;;;;14.50;6.78;;;;;;;4.01;100.00;99818.45;1741242;82;20138;-57
2022/05/11 03:25:19;;;;;;;16.40;7.10;;;;;;;4.00;100.00;99810.89;1752316;82;21602;-59
2022/05/11 03:27:45;;;;;;;11.65;6.70;;;;;;;4.12;100.00;99819.04;1732143;82;21490;-59
2022/05/11 03:30:12;;;;;;;;;;;;;;;4.29;100.00;99819.21;1737913;82;21011;-59
2022/05/11 03:35:24;;;;;;;11.33;5.97;;;;;;;4.53;100.00;99815.56;1724606;82;21015;-59
2022/05/11 03:37:50;;;;;;;15.15;7.67;;;;;;;4.71;100.00;99818.71;1727291;81;21019;-59
2022/05/11 03:40:17;;;;;;;15.25;7.70;;;;;;;4.93;100.00;99813.86;1735447;82;21034;-58
2022/05/11 03:42:44;;;;;;;13.68;6.62;;;;;;;5.27;100.00;99815.47;1726641;82;21111;-58
2022/05/11 03:45:16;;;;;;;14.50;7.45;;;;;;;5.65;100.00;99825.75;1731944;82;21177;-59
2022/05/11 03:47:45;;;;;;;12.10;6.25;;;;;;;5.98;100.00;99820.02;1716727;82;21097;-58
2022/05/11 03:50:12;;;;;;;12.07;6.87;;;;;;;6.34;100.00;99820.16;1734205;82;21535;-59
2022/05/11 03:52:38;;;;;;;15.60;7.05;;;;;;;6.72;100.00;99812.73;1731415;82;21074;-59
2022/05/11 03:55:08;;;;;;;9.83;5.92;;;;;;;7.11;100.00;99808.23;1718223;82;21051;-59
2022/05/11 03:57:37;;;;;;;13.43;7.53;;;;;;;7.47;100.00;99814.99;1707303;82;21031;-59
2022/05/11 04:00:11;;;;;;;14.60;8.33;;;;;;;7.82;100.00;99811.94;1739842;82;21031;-58
2022/05/11 04:02:41;;;;;;;20.48;10.28;;;;;;;8.16;100.00;99815.31;1726205;82;21039;-59
2022/05/11 04:05:09;;;;;;;27.67;14.70;;;;;;;8.52;100.00;99815.19;1734910;82;21106;-58
2022/05/11 04:07:36;;;;;;;29.48;17.62;;;;;;;8.79;100.00;99810.55;1725173;82;21043;-59
2022/05/11 04:10:05;;;;;;;26.00;15.30;;;;;;;9.08;100.00;99814.60;1731628;82;21047;-59
2022/05/11 04:12:31;;;;;;;18.32;10.00;;;;;;;9.31;100.00;99813.42;1726056;82;21046;-59
2022/05/11 04:14:57;;;;;;;;;;;;;;;9.53;100.00;99810.01;1722395;82;21146;-60
2022/05/11 04:17:24;;;;;;;35.55;17.23;;;;;;;9.76;100.00;99806.89;1733863;82;20146;-59
2022/05/11 04:19:50;;;;;;;62.62;23.75;;;;;;;9.98;100.00;99809.44;1734773;82;21518;-59
2022/05/11 04:22:17;;;;;;;29.52;12.80;;;;;;;10.27;100.00;99807.91;1729032;82;21070;-60
2022/05/11 04:24:44;;;;;;;32.05;13.20;;;;;;;10.57;100.00;99804.99;1746498;82;21032;-60
2022/05/11 04:27:11;;;;;;;17.35;6.55;;;;;;;10.87;100.00;99803.68;1732965;82;21031;-60
2022/05/11 04:29:38;;;;;;;20.62;8.20;;;;;;;11.17;100.00;99803.66;1730788;82;21072;-59
2022/05/11 04:32:06;;;;;;;16.25;5.65;;;;;;;11.48;100.00;99797.60;1735748;82;20975;-60
2022/05/11 04:34:34;;;;;;;12.65;4.85;;;;;;;11.94;100.00;99795.03;1698839;84;21605;-59
2022/05/11 04:37:01;;;;;;;14.00;6.03;;;;;;;12.38;100.00;99792.38;1722000;82;21447;-60
2022/05/11 04:39:27;;;;;;;21.17;9.45;;;;;;;12.88;100.00;99797.22;1726728;82;21071;-60
2022/05/11 04:41:54;;;;;;;15.85;5.80;;;;;;;13.18;100.00;99801.08;1721674;82;21019;-60
2022/05/11 04:44:20;;;;;;;;;;;;;;;13.34;100.00;99798.48;1713858;82;21083;-60
2022/05/11 04:46:47;;;;;;;11.97;4.20;;;;;;;13.67;100.00;99800.06;1722880;82;20129;-61
2022/05/11 04:49:16;;;;;;;8.83;3.67;;;;;;;13.91;100.00;99798.14;1728579;82;21094;-59
2022/05/11 04:51:44;;;;;;;10.48;4.78;;;;;;;14.42;100.00;99799.67;1725819;82;21535;-60
2022/05/11 04:54:11;;;;;;;8.45;3.30;;;;;;;14.91;98.25;99791.02;1722256;82;21555;-59
2022/05/11 04:56:38;;;;;;;7.90;3.20;;;;;;;15.17;80.62;99788.64;1733679;82;21027;-59
2022/05/11 04:59:06;;;;;;;9.93;2.08;;;;;;;15.24;73.70;99794.00;1718929;82;21566;-59
2022/05/11 05:01:33;;;;;;;7.03;2.70;;;;;;;15.53;69.75;99799.27;1728054;82;21016;-60
2022/05/11 05:04:00;;;;;;;6.62;2.55;;;;;;;15.85;62.24;99789.59;1721282;82;21554;-60
2022/05/11 05:06:27;;;;;;;5.05;2.10;;;;;;;16.13;56.57;99790.39;1726967;82;21458;-61
2022/05/11 05:08:55;;;;;;;4.87;2.35;;;;;;;16.34;56.52;99797.07;1726053;82;21039;-59
2022/05/11 05:11:22;;;;;;;7.53;2.17;;;;;;;16.48;50.46;99797.03;1735138;82;21012;-59
2022/05/11 05:13:50;;;;;;;5.83;2.47;;;;;;;16.53;49.02;99784.57;1723233;82;21513;-60
2022/05/11 05:16:16;;;;;;;6.00;2.12;;;;;;;16.79;50.35;99793.08;1714455;82;21027;-59
2022/05/11 05:18:43;;;;;;;4.70;2.17;;;;;;;17.00;48.66;99795.58;1718087;82;21051;-60
2022/05/11 05:21:09;;;;;;;7.75;1.72;;;;;;;17.16;47.61;99794.06;1732397;81;21031;-61
2022/05/11 05:23:36;;;;;;;8.15;1.90;;;;;;;17.09;45.77;99795.06;1660356;86;21099;-59
2022/05/11 05:26:03;;;;;;;6.00;2.05;;;;;;;16.98;45.24;99797.81;1685945;84;21019;-59
2022/05/11 05:31:21;;;;;;;6.37;2.25;;;;;;;17.20;47.62;99799.19;1685753;84;21043;-60
2022/05/11 05:33:48;;;;;;;4.67;1.90;;;;;;;17.30;42.87;99794.80;1703084;84;21062;-60
2022/05/11 05:36:14;;;;;;;5.80;2.22;;;;;;;17.25;42.19;99803.17;1686609;84;20999;-59
2022/05/11 05:38:42;;;;;;;8.13;2.02;;;;;;;17.17;42.39;99810.01;1675863;84;21534;-58
2022/05/11 05:41:10;;;;;;;3.92;2.12;;;;;;;17.08;42.47;99804.99;1686499;84;21019;-59
2022/05/11 05:43:39;;;;;;;4.12;2.12;;;;;;;17.19;44.32;99795.37;1711963;82;21066;-59
2022/05/11 05:46:06;;;;;;;4.30;1.90;;;;;;;17.41;42.88;99798.92;1733788;81;21016;-61
2022/05/11 05:48:34;;;;;;;4.60;1.62;;;;;;;17.36;44.56;99799.03;1724298;81;21007;-60
2022/05/11 05:51:07;;;;;;;3.70;1.80;;;;;;;17.55;44.99;99783.69;1743484;81;21102;-60
2022/05/11 05:53:35;;;;;;;5.20;2.00;;;;;;;18.06;40.52;99799.64;1685286;84;21058;-59
2022/05/11 05:56:03;;;;;;;7.55;2.12;;;;;;;17.89;41.13;99796.25;1673112;84;21122;-60
2022/05/11 05:58:29;;;;;;;4.95;1.60;;;;;;;17.97;40.29;99792.46;1682399;84;21106;-61
2022/05/11 06:00:56;;;;;;;4.50;1.82;;;;;;;17.87;38.73;99793.02;1721734;82;21135;-59
2022/05/11 06:03:24;;;;;;;4.42;1.60;;;;;;;17.88;40.10;99791.07;1713357;82;21079;-58
2022/05/11 06:05:51;;;;;;;4.50;1.42;;;;;;;18.11;38.82;99793.97;1719804;82;21071;-59
2022/05/11 06:08:18;;;;;;;5.12;1.50;;;;;;;18.17;39.49;99788.58;1718250;81;21059;-59
2022/05/11 06:10:44;;;;;;;7.78;1.80;;;;;;;18.46;38.71;99792.69;1716977;82;21111;-59
2022/05/11 06:13:13;;;;;;;4.28;1.70;;;;;;;18.72;37.67;99786.63;1712959;82;21071;-58
2022/05/11 06:15:41;;;;;;;3.95;1.30;;;;;;;18.60;37.79;99783.73;1730467;81;21609;-60
2022/05/11 06:18:09;;;;;;;4.75;1.02;;;;;;;18.52;36.23;99796.93;1665343;84;21074;-59
2022/05/11 06:20:36;;;;;;;4.58;1.22;;;;;;;18.32;35.34;99786.72;1653634;85;21059;-60
2022/05/11 06:23:04;;;;;;;4.45;1.32;;;;;;;18.46;35.97;99780.28;1673876;84;21061;-59
2022/05/11 06:25:33;;;;;;;4.87;1.50;;;;;;;18.94;37.43;99776.00;1693910;84;21070;-57
2022/05/11 06:28:00;;;;;;;4.83;1.42;;;;;;;19.45;35.00;99777.30;1726155;82;21047;-61
2022/05/11 06:30:28;;;;;;;3.15;1.12;;;;;;;19.46;32.69;99772.03;1709715;82;21123;-60
2022/05/11 06:32:55;;;;;;;4.92;1.37;;;;;;;19.26;31.17;99774.09;1710400;82;20961;-61
2022/05/11 06:35:21;;;;;;;3.90;1.37;;;;;;;19.06;31.44;99775.57;1731458;81;21570;-60
2022/05/11 06:37:50;;;;;;;5.72;1.40;;;;;;;18.90;31.68;99771.70;1710679;82;20967;-60
2022/05/11 06:40:18;;;;;;;5.40;1.80;;;;;;;18.78;32.36;99769.59;1726074;82;21134;-60
2022/05/11 06:42:45;;;;;;;4.12;1.35;;;;;;;18.84;33.61;99767.50;1736194;82;21527;-60
2022/05/11 06:45:11;;;;;;;4.45;1.47;;;;;;;18.86;32.22;99763.27;1745778;81;21537;-60
2022/05/11 06:47:38;;;;;;;8.83;1.30;;;;;;;18.79;31.50;99760.77;1734381;82;20995;-60
2022/05/11 06:50:06;;;;;;;2.75;1.10;;;;;;;18.67;32.17;99763.38;1735096;82;21094;-60
2022/05/11 06:52:32;;;;;;;2.75;1.32;;;;;;;18.87;31.75;99770.98;1696904;84;21503;-59
2022/05/11 07:00:31;;;;;;;3.50;1.00;;;;;;;18.64;28.94;99759.86;1723051;82;21027;-59
2022/05/11 07:02:58;;;;;;;2.87;1.07;;;;;;;18.50;28.90;99756.42;1701261;82;21574;-60
2022/05/11 07:05:24;;;;;;;5.58;1.50;;;;;;;18.42;28.58;99740.72;1728794;82;21075;-58
2022/05/11 07:07:52;;;;;;;3.67;1.27;;;;;;;18.45;29.18;99744.20;1737269;82;21531;-60
2022/05/11 07:10:19;;;;;;;3.65;1.42;;;;;;;18.56;29.43;99738.08;1734394;82;21601;-58
2022/05/11 07:12:47;;;;;;;3.77;1.22;;;;;;;18.54;29.28;99736.76;1728988;82;20983;-59
2022/05/11 07:15:18;;;;;;;5.67;1.10;;;;;;;18.64;30.49;99732.30;1738901;82;21051;-60
2022/05/11 07:17:55;;;;;;;3.08;1.20;;;;;;;18.94;28.65;99741.52;1699221;84;20979;-58
2022/05/11 07:20:29;;;;;;;3.02;1.30;;;;;;;18.98;28.79;99737.80;1739609;82;21554;-59
2022/05/11 07:22:55;;;;;;;2.65;1.22;;;;;;;19.09;28.40;99744.59;1731633;82;21030;-59
2022/05/11 07:25:24;;;;;;;4.00;1.50;;;;;;;18.99;27.40;99749.05;1703893;82;21121;-59
2022/05/11 07:27:52;;;;;;;4.00;1.50;;;;;;;18.89;26.98;99732.28;1741985;82;21055;-59
2022/05/11 07:30:22;;;;;;;2.83;1.45;;;;;;;18.89;25.85;99732.28;1736658;80;22059;-61
2022/05/11 07:32:48;;;;;;;2.70;0.90;;;;;;;18.71;26.31;99729.86;1723208;82;21043;-60
2022/05/11 07:35:15;;;;;;;4.67;1.30;;;;;;;18.62;26.75;99726.30;1722178;82;21054;-59
2022/05/11 07:37:41;;;;;;;3.20;1.32;;;;;;;18.76;27.22;99722.81;1730621;82;21082;-60
2022/05/11 07:40:10;;;;;;;2.33;1.10;;;;;;;18.85;27.80;99725.79;1729784;82;21027;-60
2022/05/11 07:42:37;;;;;;;2.62;0.80;;;;;;;18.88;27.38;99725.73;1703932;82;21104;-60
2022/05/11 07:45:05;;;;;;;2.25;1.05;;;;;;;18.88;28.48;99724.34;1738351;82;21074;-60
2022/05/11 07:47:33;;;;;;;3.80;1.10;;;;;;;19.05;28.64;99715.22;1730616;82;20959;-60
2022/05/11 07:51:03;;;;;;;2.83;1.02;;;;;;;19.42;28.07;99710.34;1836261;76;23287;-57
2022/05/11 07:53:32;;;;;;;5.33;1.65;;;;;;;19.42;28.01;99717.23;1808668;77;20955;-60
2022/05/11 08:01:29;;;;;;;5.62;1.50;;;;;;;19.25;27.35;99712.56;1805973;77;20997;-59
2022/05/11 08:03:56;;;;;;;4.90;1.57;;;;;;;19.35;28.62;99706.68;1799063;76;22177;-59
2022/05/11 08:06:22;;;;;;;3.52;1.47;;;;;;;19.78;27.48;99705.70;1794843;77;20969;-61
2022/05/11 08:08:50;;;;;;;6.30;1.50;;;;;;;19.96;25.62;99701.70;1808363;79;20962;-59
2022/05/11 08:11:16;;;;;;;4.15;1.30;;;;;;;19.85;26.33;99701.28;1809505;79;20990;-59
2022/05/11 08:13:43;;;;;;;5.40;1.20;;;;;;;19.76;27.75;99701.91;1810100;79;21001;-60
2022/05/11 08:16:09;;;;;;;3.45;1.47;;;;;;;19.83;27.52;99706.91;1817051;79;21044;-60
2022/05/11 08:18:36;;;;;;;7.50;1.30;;;;;;;19.69;26.92;99699.43;1815789;77;21011;-60
2022/05/11 08:21:03;;;;;;;4.60;1.55;;;;;;;19.49;27.32;99699.59;1794316;79;21049;-60
2022/05/11 08:23:31;;;;;;;5.08;1.32;;;;;;;19.52;29.07;99696.76;1773705;77;21017;-61
2022/05/11 08:25:57;;;;;;;3.58;1.30;;;;;;;19.80;28.40;99697.31;1805599;78;21057;-60
2022/05/11 08:28:25;;;;;;;3.40;1.42;;;;;;;19.91;27.68;99700.50;1814796;79;21497;-60
2022/05/11 08:33:39;;;;;;;5.47;2.58;;;;;;;19.92;27.12;99691.08;1805178;77;21015;-62
2022/05/11 08:36:12;;;;;;;5.12;1.98;;;;;;;19.92;27.12;99691.08;1796416;77;21032;-60
2022/05/11 08:38:42;;;;;;;7.95;2.55;;;;;;;19.86;26.38;99685.52;1816846;77;21048;-61
2022/05/11 08:41:37;;;;;;;7.25;3.00;;;;;;;19.71;27.27;99686.09;1795895;77;21083;-62
2022/05/11 08:44:17;;;;;;;7.97;3.08;;;;;;;19.61;26.43;99684.52;1814729;77;21580;-60
2022/05/11 08:47:04;;;;;;;10.25;3.60;;;;;;;19.33;26.24;99682.75;1813906;79;20997;-61
2022/05/11 08:49:37;;;;;;;;;;;;;;;19.32;27.01;99673.41;1808526;77;21032;-60
2022/05/11 08:52:05;;;;;;;7.50;2.95;;;;;;;19.44;26.56;99671.38;1790923;79;20112;-60
2022/05/11 08:54:44;;;;;;;9.13;2.98;;;;;;;19.09;27.01;99673.42;1799940;77;21085;-59
2022/05/11 08:57:23;;;;;;;4.90;1.92;;;;;;;19.07;27.56;99677.06;1787748;79;21811;-60
2022/05/11 08:59:53;;;;;;;5.72;1.90;;;;;;;19.19;27.33;99672.50;1797754;77;21077;-58
2022/05/11 09:02:44;;;;;;;4.53;2.35;;;;;;;19.29;27.02;99663.85;1808374;77;21413;-60
2022/05/11 09:05:11;;;;;;;6.42;2.33;;;;;;;19.52;29.65;99665.01;1787044;78;21025;-60
2022/05/11 09:07:41;;;;;;;5.80;2.22;;;;;;;19.93;27.27;99652.65;1776617;79;21029;-60
2022/05/11 09:10:08;;;;;;;9.45;2.90;;;;;;;20.08;27.14;99649.87;1821968;77;21506;-60
2022/05/11 09:12:37;;;;;;;8.20;4.05;;;;;;;20.33;27.43;99653.81;1813877;77;21006;-61
2022/05/11 09:15:05;;;;;;;9.05;4.08;;;;;;;20.58;27.05;99653.34;1798051;77;21046;-61
2022/05/11 09:17:34;;;;;;;7.62;3.65;;;;;;;20.41;27.04;99650.74;1794321;79;20990;-60
2022/05/11 09:20:12;;;;;;;8.73;3.83;;;;;;;20.07;28.34;99649.05;1808869;77;21112;-60
2022/05/11 09:22:46;;;;;;;6.33;2.92;;;;;;;19.85;27.75;99645.22;1823353;77;21009;-59
2022/05/11 09:25:20;;;;;;;8.05;4.20;;;;;;;19.56;28.87;99643.84;1816182;77;21155;-59
2022/05/11 09:27:51;;;;;;;5.97;2.92;;;;;;;19.67;29.61;99642.33;1796845;77;21457;-60
2022/05/11 09:30:23;;;;;;;6.87;2.90;;;;;;;19.73;31.20;99641.01;1788354;79;21025;-59
2022/05/11 09:32:53;;;;;;;6.22;2.95;;;;;;;19.73;29.17;99641.01;1792943;79;20998;-60
2022/05/11 09:35:36;;;;;;;7.45;3.20;;;;;;;19.56;28.95;99643.84;1731164;82;21573;-60
2022/05/11 09:38:27;;;;;;;6.10;2.83;;;;;;;19.36;29.86;99639.87;1747048;81;20980;-60
2022/05/11 09:40:57;;;;;;;5.35;2.30;;;;;;;19.39;29.55;99626.78;1741620;81;21703;-61
2022/05/11 09:43:42;;;;;;;7.42;2.92;;;;;;;19.26;28.07;99634.73;1757225;79;21045;-60
2022/05/11 09:46:22;;;;;;;7.97;3.30;;;;;;;19.19;28.00;99640.77;1749547;79;21085;-60
2022/05/11 09:49:15;;;;;;;6.78;2.62;;;;;;;19.05;29.32;99636.59;1754108;79;21481;-58
2022/05/11 09:51:50;;;;;;;5.75;3.10;;;;;;;18.79;28.03;99615.42;1775731;81;21018;-60
2022/05/11 09:54:46;;;;;;;7.25;2.90;;;;;;;18.62;29.18;99632.57;1782200;79;21089;-60
2022/05/11 09:57:15;;;;;;;6.85;2.87;;;;;;;18.44;27.51;99633.70;1757112;81;21022;-59
2022/05/11 09:59:49;;;;;;;9.00;3.95;;;;;;;18.30;28.96;99627.80;1776989;79;21130;-62
2022/05/11 10:02:35;;;;;;;6.08;3.12;;;;;;;18.39;30.13;99622.27;1715452;79;21041;-60
2022/05/11 10:05:12;;;;;;;5.95;2.80;;;;;;;18.55;31.49;99621.23;1758898;79;21933;-61
2022/05/11 10:08:15;;;;;;;7.80;3.30;;;;;;;18.62;31.13;99622.36;1748420;81;21485;-60
2022/05/11 10:10:56;;;;;;;7.12;3.20;;;;;;;18.71;31.17;99616.81;1755746;81;21046;-61
2022/05/11 10:13:36;;;;;;;7.10;2.80;;;;;;;18.72;30.65;99619.25;1740676;79;21034;-60
2022/05/11 10:22:08;;;;;;;4.95;2.92;;;;;;;18.55;29.35;99612.96;1764356;79;21046;-60
2022/05/11 10:25:18;;;;;;;6.97;3.00;;;;;;;18.59;31.40;99615.31;1761299;79;21108;-61
2022/05/11 10:28:05;;;;;;;6.47;3.17;;;;;;;18.72;28.83;99611.55;1755495;79;21446;-59
2022/05/11 10:31:03;;;;;;;4.83;2.75;;;;;;;18.66;29.29;99605.97;1756074;79;21101;-60
2022/05/11 10:33:50;;;;;;;10.28;2.98;;;;;;;18.61;29.62;99604.75;1761608;79;20990;-61
2022/05/11 10:36:42;;;;;;;8.18;2.98;;;;;;;18.66;30.39;99610.11;1758184;80;21072;-59
2022/05/11 10:39:42;;;;;;;7.70;3.00;;;;;;;18.79;30.18;99603.01;1776500;79;21148;-60
2022/05/11 10:42:32;;;;;;;10.98;2.85;;;;;;;18.97;30.84;99596.05;1770362;79;21407;-59
2022/05/11 10:45:28;;;;;;;6.08;2.70;;;;;;;19.09;30.50;99592.85;1766371;79;21087;-60
2022/05/11 10:48:22;;;;;;;6.17;3.12;;;;;;;19.27;30.75;99593.58;1762830;79;21010;-59
2022/05/11 10:51:02;;;;;;;7.40;2.55;;;;;;;19.42;29.67;99586.69;1754866;81;21101;-60
2022/05/11 10:54:05;;;;;;;6.67;2.90;;;;;;;19.37;29.60;99582.97;1759466;79;21544;-60
2022/05/11 10:56:54;;;;;;;8.00;2.58;;;;;;;19.21;29.47;99584.66;1735688;82;20966;-59
2022/05/11 10:59:38;;;;;;;4.95;2.62;;;;;;;19.17;30.06;99575.42;1762897;80;21086;-58
2022/05/11 11:02:38;;;;;;;5.35;2.02;;;;;;;19.25;30.98;99578.72;1770649;79;21497;-58
2022/05/11 11:05:42;;;;;;;5.12;1.80;;;;;;;19.26;29.39;99567.11;1752845;81;21128;-60
2022/05/11 11:08:24;;;;;;;4.62;1.45;;;;;;;19.26;32.79;99569.88;1751790;81;21026;-59
2022/05/11 11:11:34;;;;;;;4.22;1.65;;;;;;;19.41;30.97;99577.62;1749910;81;21085;-59
2022/05/11 11:14:02;;;;;;;6.33;1.30;;;;;;;19.56;31.07;99573.44;1755408;79;21074;-60
2022/05/11 11:16:34;;;;;;;3.22;1.35;;;;;;;19.71;31.96;99564.58;1736861;82;21001;-61
2022/05/11 11:19:04;;;;;;;2.98;1.10;;;;;;;19.88;30.98;99569.39;1755520;79;21033;-60
2022/05/11 11:21:30;;;;;;;4.10;1.32;;;;;;;20.00;31.47;99567.84;1767798;81;21069;-60
2022/05/11 11:24:14;;;;;;;4.05;1.25;;;;;;;20.06;30.54;99567.30;1769013;78;21004;-59
2022/05/11 11:26:59;;;;;;;3.77;1.52;;;;;;;20.09;30.21;99558.89;1751623;80;21056;-60
2022/05/11 11:29:35;;;;;;;7.20;1.50;;;;;;;20.07;29.58;99557.05;1771480;79;21109;-60
2022/05/11 11:32:12;;;;;;;4.67;1.47;;;;;;;19.99;29.52;99551.02;1746490;81;21085;-60
2022/05/11 11:34:46;;;;;;;2.90;1.27;;;;;;;19.82;28.21;99540.94;1765933;79;21081;-61
2022/05/11 11:37:35;;;;;;;5.35;1.40;;;;;;;19.67;29.93;99537.39;1773196;81;21038;-61
2022/05/11 11:40:17;;;;;;;2.75;1.30;;;;;;;19.71;30.00;99532.81;1766080;81;21047;-59
2022/05/11 11:42:45;;;;;;;2.98;1.30;;;;;;;19.81;30.17;99540.69;1747917;81;20994;-59
2022/05/11 11:45:33;;;;;;;3.87;1.10;;;;;;;19.90;28.93;99528.20;1733030;80;21050;-60
2022/05/11 11:48:20;;;;;;;3.20;0.95;;;;;;;19.87;29.37;99529.09;1761989;81;21046;-60
2022/05/11 11:50:59;;;;;;;;;;;;;;;19.96;31.34;99533.17;1766011;80;21101;-60
2022/05/11 11:53:31;;;;;;;5.15;1.40;;;;;;;20.04;31.11;99526.77;1760856;81;20137;-60
2022/05/11 11:56:31;;;;;;;3.15;1.47;;;;;;;20.04;34.34;99530.92;1762946;81;21571;-62
2022/05/11 11:59:09;;;;;;;6.92;1.45;;;;;;;20.16;31.25;99524.03;1756732;81;21741;-62
2022/05/11 12:01:46;;;;;;;3.20;1.17;;;;;;;20.22;31.34;99526.03;1758171;81;21627;-61
2022/05/11 12:04:33;;;;;;;3.25;1.10;;;;;;;20.26;31.68;99533.28;1759795;81;21058;-61
2022/05/11 12:15:38;;;;;;;3.98;1.40;;;;;;;20.11;29.81;99502.73;1761713;79;21022;-61
2022/05/11 12:18:23;;;;;;;3.45;1.05;;;;;;;19.98;30.03;99514.89;1724081;81;20977;-61
2022/05/11 12:20:49;;;;;;;2.02;1.02;;;;;;;19.98;33.18;99507.98;1754955;81;21026;-61
2022/05/11 12:23:33;;;;;;;3.12;1.17;;;;;;;20.14;31.26;99512.53;1755598;81;21513;-62
2022/05/11 12:26:05;;;;;;;2.98;0.88;;;;;;;20.14;30.08;99511.15;1748945;81;21111;-62
2022/05/11 12:28:42;;;;;;;4.30;1.20;;;;;;;20.05;30.24;99503.50;1762553;79;21527;-60
2022/05/11 12:31:09;;;;;;;3.42;0.98;;;;;;;20.05;29.31;99489.69;1744198;80;21127;-62